Pagrindinis puslapis
METAR-TAF:

METAR-TAF

Oro uostai :

Hutchinson County Airport

Borger, Teksasas, Jungtinės Amerikos Valstijos

platuma: 35-41-42N, ilguma: 101-23-42W, Aukštis: 931 m

Dabartinis oras

Ataskaita buvo paskelbta 59 minutes, ne 09:51 UTC
Vėjas 11 kt iš Šiaurės Vakarų su gūsio iki 22 kt
Temperatūra 11°C
Drėgmė 37%
Slėgis 1015 hPa
Matomumas: 16.1 km
Giedras dangus

METAR: KBGD 280951Z AUTO 32011G22KT 10SM CLR 11/M03 A2997 RMK AO2 SLP128 T01111033

Laikas: 05:50 (10:50 UTC)


TAF: trūkstamas

Orai ataskaitas ir orų prognozės (METAR, TAF).

turimą stotys yra geltonos ir raudonos taškus žemėlapyje.

Perkelti pele per norėdami pamatyti stoties vardą.

Tada spustelėkite, norėdami matyti oro stebėjimo ir prognozės.

Norėdami pakeisti žemėlapį: spustelėkite ant žalios mygtukų su juodo kryžiaus žemyn,; žalią mygtuką su brūkšneliu, jei norite nutolinti; arba žalių rodyklių gretimoms žemėlapius.


METAR-TAF: